Time;durP1;ratioP1;P1;durP2;ratioP2;P2;SDS_P1;SDS_P2;PMS_P1;PMS_P2;Temp;Humidity;BMP_temperature;BMP_pressure;BME280_temperature;BME280_humidity;BME280_pressure;Samples;Min_cycle;Max_cycle;Signal;HPM_P1;HPM_P2
2023/03/05 00:01:28;;;;;;;16.40;3.50;;;;;;;;;;5012189;28;20041;-61
2023/03/05 00:03:55;;;;;;;13.00;3.00;;;;;;;;;;5018822;28;20073;-61
2023/03/05 00:06:22;;;;;;;14.67;2.27;;;;;;;;;;5020542;27;20467;-62
2023/03/05 00:08:50;;;;;;;12.27;2.60;;;;;;;;;;5017450;28;20049;-61
2023/03/05 00:11:16;;;;;;;11.17;2.40;;;;;;;;;;5018431;27;20081;-61
2023/03/05 00:13:43;;;;;;;14.03;2.50;;;;;;;;;;5016185;28;20482;-61
2023/03/05 00:16:10;;;;;;;9.87;2.23;;;;;;;;;;5017650;28;20091;-62
2023/03/05 00:18:36;;;;;;;15.83;3.50;;;;;;;;;;5017077;28;20090;-61
2023/03/05 00:21:03;;;;;;;10.73;2.20;;;;;;;;;;5011618;28;20468;-61
2023/03/05 00:23:29;;;;;;;15.47;2.73;;;;;;;;;;5017582;28;20038;-61
2023/03/05 00:25:55;;;;;;;12.63;2.63;;;;;;;;;;5018666;28;20063;-61
2023/03/05 00:28:21;;;;;;;12.97;3.13;;;;;;;;;;5083453;28;20101;-61
2023/03/05 00:30:47;;;;;;;13.47;2.90;;;;;;;;;;5016238;28;20568;-61
2023/03/05 00:33:13;;;;;;;14.13;3.20;;;;;;;;;;5013573;28;20497;-61
2023/03/05 00:35:40;;;;;;;17.30;3.97;;;;;;;;;;5017596;28;20041;-61
2023/03/05 00:38:06;;;;;;;19.87;3.07;;;;;;;;;;5016895;28;20134;-61
2023/03/05 00:40:34;;;;;;;13.83;3.07;;;;;;;;;;5020431;28;20045;-61
2023/03/05 00:43:00;;;;;;;16.97;3.53;;;;;;;;;;5014278;28;20049;-61
2023/03/05 00:45:26;;;;;;;13.03;2.83;;;;;;;;;;5015138;28;20128;-61
2023/03/05 00:47:52;;;;;;;12.43;2.93;;;;;;;;;;5017239;28;20042;-61
2023/03/05 00:50:19;;;;;;;15.40;3.23;;;;;;;;;;5018354;27;20053;-61
2023/03/05 00:52:45;;;;;;;14.47;4.03;;;;;;;;;;5014917;28;20033;-61
2023/03/05 00:55:11;;;;;;;22.60;4.10;;;;;;;;;;5016476;28;20048;-61
2023/03/05 00:57:37;;;;;;;17.67;3.33;;;;;;;;;;5016949;28;20049;-61
2023/03/05 01:00:04;;;;;;;16.80;2.93;;;;;;;;;;5017372;28;20049;-61
2023/03/05 01:02:30;;;;;;;11.07;3.30;;;;;;;;;;5014651;28;20038;-61
2023/03/05 01:04:56;;;;;;;7.57;2.27;;;;;;;;;;5022291;28;20537;-61
2023/03/05 01:07:22;;;;;;;12.33;2.87;;;;;;;;;;5026160;28;20504;-61
2023/03/05 01:09:48;;;;;;;15.97;2.80;;;;;;;;;;5019545;28;20050;-61
2023/03/05 01:12:14;;;;;;;14.13;3.30;;;;;;;;;;5013155;28;20771;-61
2023/03/05 01:14:40;;;;;;;10.57;3.00;;;;;;;;;;5026276;28;20415;-61
2023/03/05 01:17:06;;;;;;;14.90;2.80;;;;;;;;;;5026121;28;20098;-62
2023/03/05 01:19:32;;;;;;;16.23;3.23;;;;;;;;;;5026258;28;20102;-61
2023/03/05 01:21:58;;;;;;;13.60;4.13;;;;;;;;;;5020519;28;20054;-61
2023/03/05 01:24:24;;;;;;;11.97;2.60;;;;;;;;;;5005932;28;20068;-61
2023/03/05 01:26:51;;;;;;;13.73;3.37;;;;;;;;;;5007191;28;20124;-61
2023/03/05 01:29:17;;;;;;;18.77;3.37;;;;;;;;;;5005854;28;20050;-61
2023/03/05 01:31:43;;;;;;;11.77;2.47;;;;;;;;;;5075012;28;20076;-61
2023/03/05 01:34:09;;;;;;;14.40;3.63;;;;;;;;;;5026119;28;20056;-61
2023/03/05 01:36:35;;;;;;;13.30;3.03;;;;;;;;;;5024535;28;20041;-61
2023/03/05 01:39:01;;;;;;;14.37;3.43;;;;;;;;;;5026061;28;20069;-61
2023/03/05 01:41:28;;;;;;;12.03;3.20;;;;;;;;;;5024655;28;20045;-61
2023/03/05 01:43:54;;;;;;;14.23;3.30;;;;;;;;;;5074994;28;20137;-61
2023/03/05 01:46:36;;;;;;;17.43;4.13;;;;;;;;;;5005510;28;20046;-61
2023/03/05 01:49:08;;;;;;;15.47;2.80;;;;;;;;;;5005997;28;20127;-61
2023/03/05 01:51:36;;;;;;;8.73;2.27;;;;;;;;;;5006597;28;20042;-61
2023/03/05 01:54:04;;;;;;;13.47;3.50;;;;;;;;;;5025481;28;20051;-61
2023/03/05 01:56:30;;;;;;;20.70;2.70;;;;;;;;;;5025820;28;20045;-61
2023/03/05 01:59:02;;;;;;;13.23;3.53;;;;;;;;;;5025490;28;20045;-61
2023/03/05 02:01:29;;;;;;;15.03;3.17;;;;;;;;;;5014412;28;20141;-61
2023/03/05 02:03:55;;;;;;;13.30;3.90;;;;;;;;;;5022985;28;20042;-61
2023/03/05 02:06:21;;;;;;;14.37;2.87;;;;;;;;;;5006765;28;20573;-61
2023/03/05 02:08:47;;;;;;;18.67;4.60;;;;;;;;;;5007699;28;20042;-61
2023/03/05 02:11:13;;;;;;;19.40;3.00;;;;;;;;;;5009157;28;20042;-61
2023/03/05 02:13:39;;;;;;;12.63;2.50;;;;;;;;;;5008944;28;20049;-61
2023/03/05 02:16:06;;;;;;;9.13;2.37;;;;;;;;;;5009130;28;20050;-61
2023/03/05 02:18:32;;;;;;;15.37;2.80;;;;;;;;;;5009379;28;20497;-61
2023/03/05 02:21:05;;;;;;;13.00;2.97;;;;;;;;;;5077302;28;20053;-61
2023/03/05 02:23:35;;;;;;;8.65;2.70;;;;;;;;;;5008550;28;20076;-61
2023/03/05 02:26:01;;;;;;;19.40;3.20;;;;;;;;;;5077163;28;20054;-61
2023/03/05 02:28:37;;;;;;;7.70;2.30;;;;;;;;;;5007900;28;20042;-61
2023/03/05 02:31:08;;;;;;;8.77;2.13;;;;;;;;;;5012734;28;20065;-61
2023/03/05 02:33:34;;;;;;;6.60;2.10;;;;;;;;;;5011883;28;20578;-61
2023/03/05 02:36:00;;;;;;;10.50;2.43;;;;;;;;;;5092990;28;20045;-61
2023/03/05 02:38:26;;;;;;;9.00;2.07;;;;;;;;;;5027555;28;20060;-61
2023/03/05 02:40:52;;;;;;;12.37;2.43;;;;;;;;;;5019479;28;20049;-61
2023/03/05 02:43:18;;;;;;;10.77;2.83;;;;;;;;;;5007790;28;20046;-61
2023/03/05 02:45:45;;;;;;;16.20;3.07;;;;;;;;;;5019304;28;20095;-61
2023/03/05 02:48:11;;;;;;;10.70;2.53;;;;;;;;;;5028558;27;20124;-62
2023/03/05 02:50:38;;;;;;;9.90;2.10;;;;;;;;;;5028135;28;20060;-61
2023/03/05 02:53:05;;;;;;;9.13;2.63;;;;;;;;;;5015850;28;20769;-61
2023/03/05 02:55:31;;;;;;;6.70;1.90;;;;;;;;;;5007250;28;20603;-61
2023/03/05 02:57:57;;;;;;;8.53;2.07;;;;;;;;;;5008736;28;20068;-61
2023/03/05 03:00:23;;;;;;;11.57;1.80;;;;;;;;;;5008451;28;20068;-61
2023/03/05 03:02:49;;;;;;;10.33;1.77;;;;;;;;;;5007708;28;20137;-61
2023/03/05 03:05:15;;;;;;;12.57;1.93;;;;;;;;;;5008276;28;20057;-60
2023/03/05 03:07:41;;;;;;;9.73;2.00;;;;;;;;;;5008759;28;20046;-61
2023/03/05 03:10:08;;;;;;;7.93;2.60;;;;;;;;;;5008333;28;20058;-60
2023/03/05 03:12:40;;;;;;;9.53;2.17;;;;;;;;;;5013541;28;20041;-61
2023/03/05 03:15:08;;;;;;;10.87;1.70;;;;;;;;;;5027951;28;20053;-60
2023/03/05 03:17:34;;;;;;;8.87;1.43;;;;;;;;;;5027712;28;20045;-60
2023/03/05 03:20:02;;;;;;;13.00;2.33;;;;;;;;;;5028017;28;20450;-61
2023/03/05 03:22:28;;;;;;;5.33;1.47;;;;;;;;;;5025362;28;20824;-61
2023/03/05 03:24:55;;;;;;;16.23;2.23;;;;;;;;;;5028002;28;20038;-62
2023/03/05 03:27:21;;;;;;;9.27;2.17;;;;;;;;;;5027466;28;20053;-62
2023/03/05 03:29:47;;;;;;;7.37;2.00;;;;;;;;;;5016525;28;20057;-62
2023/03/05 03:32:13;;;;;;;10.20;2.80;;;;;;;;;;5008887;28;20087;-62
2023/03/05 03:34:39;;;;;;;6.67;1.77;;;;;;;;;;5027314;28;20052;-62
2023/03/05 03:37:05;;;;;;;5.63;1.63;;;;;;;;;;5027969;28;20087;-62
2023/03/05 03:39:31;;;;;;;8.80;1.87;;;;;;;;;;5027262;28;20054;-62
2023/03/05 03:41:57;;;;;;;11.90;2.20;;;;;;;;;;5027996;28;20052;-62
2023/03/05 03:44:23;;;;;;;7.27;2.10;;;;;;;;;;5094792;28;20501;-62
2023/03/05 03:46:50;;;;;;;9.10;2.40;;;;;;;;;;5027064;28;20090;-62
2023/03/05 03:49:20;;;;;;;6.30;1.67;;;;;;;;;;5027338;28;20046;-62
2023/03/05 03:51:47;;;;;;;10.20;1.70;;;;;;;;;;5027501;28;20074;-62
2023/03/05 03:54:13;;;;;;;8.10;1.83;;;;;;;;;;5025591;28;20052;-62
2023/03/05 03:56:39;;;;;;;8.70;1.87;;;;;;;;;;5027422;28;20045;-62
2023/03/05 03:59:06;;;;;;;7.00;1.37;;;;;;;;;;5026846;28;20049;-62
2023/03/05 04:01:32;;;;;;;5.30;1.57;;;;;;;;;;5007246;28;20049;-62
2023/03/05 04:03:58;;;;;;;7.43;1.53;;;;;;;;;;5075840;28;20061;-62
2023/03/05 04:06:24;;;;;;;14.60;1.60;;;;;;;;;;5017744;28;20042;-62
2023/03/05 04:08:50;;;;;;;12.00;1.90;;;;;;;;;;5027443;28;20049;-62
2023/03/05 04:11:18;;;;;;;7.00;1.90;;;;;;;;;;5026451;28;20053;-62
2023/03/05 04:13:44;;;;;;;12.13;2.23;;;;;;;;;;5014974;28;20053;-62
2023/03/05 04:16:10;;;;;;;10.07;1.97;;;;;;;;;;5008012;28;20544;-62
2023/03/05 04:18:36;;;;;;;7.67;1.70;;;;;;;;;;5007138;28;20046;-61
2023/03/05 04:21:02;;;;;;;8.10;1.70;;;;;;;;;;5007282;28;20045;-62
2023/03/05 04:23:28;;;;;;;5.17;1.70;;;;;;;;;;5007152;28;20566;-62
2023/03/05 04:25:54;;;;;;;11.73;2.00;;;;;;;;;;5006884;28;20106;-62
2023/03/05 04:28:20;;;;;;;10.47;1.80;;;;;;;;;;5007216;28;20497;-62
2023/03/05 04:30:46;;;;;;;8.73;1.77;;;;;;;;;;5005904;28;20058;-62
2023/03/05 04:33:13;;;;;;;6.97;1.73;;;;;;;;;;5011557;28;20046;-62
2023/03/05 04:35:39;;;;;;;8.70;2.40;;;;;;;;;;5006920;28;20052;-62
2023/03/05 04:38:05;;;;;;;9.37;1.60;;;;;;;;;;5006886;28;20413;-63
2023/03/05 04:40:31;;;;;;;10.87;1.77;;;;;;;;;;5009281;28;20063;-63
2023/03/05 04:42:57;;;;;;;8.00;2.30;;;;;;;;;;5006714;28;20050;-63
2023/03/05 04:45:23;;;;;;;5.33;1.83;;;;;;;;;;5006506;28;20085;-63
2023/03/05 04:47:49;;;;;;;6.80;2.00;;;;;;;;;;5006616;28;20515;-63
2023/03/05 04:50:15;;;;;;;8.33;2.30;;;;;;;;;;5007132;28;20054;-63
2023/03/05 04:52:42;;;;;;;12.93;1.90;;;;;;;;;;5005643;28;20102;-63
2023/03/05 04:55:09;;;;;;;15.87;2.10;;;;;;;;;;5006782;28;20052;-63
2023/03/05 04:57:35;;;;;;;6.50;2.30;;;;;;;;;;5006679;28;20516;-63
2023/03/05 05:00:04;;;;;;;6.37;2.13;;;;;;;;;;5006782;28;20123;-63
2023/03/05 05:02:30;;;;;;;8.17;2.10;;;;;;;;;;5008812;28;20052;-63
2023/03/05 05:04:56;;;;;;;11.63;2.40;;;;;;;;;;5026164;28;20046;-63
2023/03/05 05:07:22;;;;;;;12.33;2.57;;;;;;;;;;5025328;28;20073;-63
2023/03/05 05:09:48;;;;;;;8.97;2.83;;;;;;;;;;5026219;28;20416;-63
2023/03/05 05:12:14;;;;;;;7.80;2.00;;;;;;;;;;5012843;28;20042;-63
2023/03/05 05:14:40;;;;;;;11.10;3.10;;;;;;;;;;5012704;28;20049;-63
2023/03/05 05:17:06;;;;;;;9.60;2.63;;;;;;;;;;5015572;28;20042;-63
2023/03/05 05:19:32;;;;;;;5.27;2.30;;;;;;;;;;5026250;28;20057;-63
2023/03/05 05:21:58;;;;;;;6.97;2.40;;;;;;;;;;5025927;28;20458;-63
2023/03/05 05:24:25;;;;;;;10.97;2.80;;;;;;;;;;5023587;28;20136;-63
2023/03/05 05:26:53;;;;;;;7.80;1.83;;;;;;;;;;5013258;28;20452;-63
2023/03/05 05:29:19;;;;;;;11.83;2.90;;;;;;;;;;5025211;28;20042;-63
2023/03/05 05:31:45;;;;;;;10.40;2.53;;;;;;;;;;5026169;28;20050;-63
2023/03/05 05:34:11;;;;;;;10.57;2.00;;;;;;;;;;5025640;28;20041;-63
2023/03/05 05:36:37;;;;;;;11.20;3.70;;;;;;;;;;5007992;28;20059;-63
2023/03/05 05:39:03;;;;;;;14.57;3.63;;;;;;;;;;5005725;28;20448;-63
2023/03/05 05:41:29;;;;;;;10.17;4.27;;;;;;;;;;5006426;28;20061;-63
2023/03/05 05:43:55;;;;;;;9.93;2.20;;;;;;;;;;5008292;28;20076;-63
2023/03/05 05:46:23;;;;;;;9.87;3.10;;;;;;;;;;5012584;28;20045;-63
2023/03/05 05:48:49;;;;;;;10.63;2.60;;;;;;;;;;5029303;28;20515;-63
2023/03/05 05:51:20;;;;;;;9.73;2.90;;;;;;;;;;5028776;28;20056;-63
2023/03/05 05:53:46;;;;;;;10.43;2.90;;;;;;;;;;5098089;28;20052;-63
2023/03/05 05:56:13;;;;;;;7.70;2.00;;;;;;;;;;5028495;28;20075;-63
2023/03/05 05:58:40;;;;;;;7.83;2.60;;;;;;;;;;5024020;28;20481;-63
2023/03/05 06:01:13;;;;;;;7.77;2.83;;;;;;;;;;5009484;28;20046;-63
2023/03/05 06:03:39;;;;;;;9.82;2.63;;;;;;;;;;5009598;28;20042;-63
2023/03/05 06:06:12;;;;;;;13.47;2.63;;;;;;;;;;5010246;28;20050;-63
2023/03/05 06:08:39;;;;;;;9.60;2.88;;;;;;;;;;5009075;28;20046;-62
2023/03/05 06:11:05;;;;;;;7.30;2.33;;;;;;;;;;5009291;28;20142;-63
2023/03/05 06:13:31;;;;;;;7.33;2.43;;;;;;;;;;5009151;28;20046;-63
2023/03/05 06:15:59;;;;;;;8.50;2.50;;;;;;;;;;5014831;28;20081;-62
2023/03/05 06:18:25;;;;;;;10.47;2.70;;;;;;;;;;5028247;28;20041;-62
2023/03/05 06:20:58;;;;;;;11.93;3.43;;;;;;;;;;5029099;28;20045;-62
2023/03/05 06:23:24;;;;;;;11.15;2.47;;;;;;;;;;5028391;28;20041;-63
2023/03/05 06:25:50;;;;;;;8.23;2.50;;;;;;;;;;5028734;28;20060;-62
2023/03/05 06:28:16;;;;;;;9.00;3.13;;;;;;;;;;5007810;28;20765;-62
2023/03/05 06:30:42;;;;;;;16.47;3.23;;;;;;;;;;5022428;28;20053;-62
2023/03/05 06:33:08;;;;;;;6.77;2.33;;;;;;;;;;5016618;28;20045;-62
2023/03/05 06:35:37;;;;;;;12.73;2.77;;;;;;;;;;5008509;28;20099;-63
2023/03/05 06:38:03;;;;;;;11.57;2.57;;;;;;;;;;5023853;28;20455;-62
2023/03/05 06:40:29;;;;;;;11.40;2.57;;;;;;;;;;5025115;28;20048;-63
2023/03/05 06:42:55;;;;;;;11.70;2.90;;;;;;;;;;5017748;28;20068;-63
2023/03/05 06:45:21;;;;;;;15.47;2.83;;;;;;;;;;5016354;28;20496;-62
2023/03/05 06:47:47;;;;;;;12.23;2.50;;;;;;;;;;5017508;28;20038;-63
2023/03/05 06:50:13;;;;;;;12.40;2.67;;;;;;;;;;5016697;28;20045;-63
2023/03/05 06:52:39;;;;;;;7.83;3.10;;;;;;;;;;5015612;28;20045;-63
2023/03/05 06:55:06;;;;;;;15.60;3.30;;;;;;;;;;5016993;28;20504;-63
2023/03/05 06:57:32;;;;;;;8.33;2.53;;;;;;;;;;5015183;28;20865;-63
2023/03/05 06:59:58;;;;;;;7.90;2.33;;;;;;;;;;5017097;28;20507;-63
2023/03/05 07:02:25;;;;;;;11.07;2.87;;;;;;;;;;5015756;28;20042;-63
2023/03/05 07:04:51;;;;;;;13.43;3.27;;;;;;;;;;5014328;28;20144;-62
2023/03/05 07:07:17;;;;;;;8.63;2.50;;;;;;;;;;5019297;28;20046;-63
2023/03/05 07:09:44;;;;;;;10.80;3.30;;;;;;;;;;5020103;28;20046;-62
2023/03/05 07:12:11;;;;;;;9.53;2.13;;;;;;;;;;5021171;28;20056;-62
2023/03/05 07:14:38;;;;;;;14.37;3.37;;;;;;;;;;5013553;28;20509;-63
2023/03/05 07:17:07;;;;;;;10.50;2.47;;;;;;;;;;5014243;28;20532;-62
2023/03/05 07:19:33;;;;;;;85.50;8.13;;;;;;;;;;5011612;28;20056;-62
2023/03/05 07:21:59;;;;;;;13.83;3.50;;;;;;;;;;5009353;28;20068;-62
2023/03/05 07:24:28;;;;;;;20.97;3.43;;;;;;;;;;5010717;28;20175;-61
2023/03/05 07:26:56;;;;;;;17.80;4.20;;;;;;;;;;5011848;28;20402;-62
2023/03/05 07:29:22;;;;;;;9.47;2.50;;;;;;;;;;5011602;28;20060;-63
2023/03/05 07:31:48;;;;;;;9.67;2.47;;;;;;;;;;5016025;28;20057;-62
2023/03/05 07:34:15;;;;;;;6.53;2.30;;;;;;;;;;5016558;28;20480;-63
2023/03/05 07:36:41;;;;;;;9.93;2.50;;;;;;;;;;5016383;28;20041;-63
2023/03/05 07:39:08;;;;;;;8.43;2.50;;;;;;;;;;5017499;28;20037;-63
2023/03/05 07:41:34;;;;;;;7.87;2.37;;;;;;;;;;5015928;28;20054;-62
2023/03/05 07:44:00;;;;;;;14.17;3.40;;;;;;;;;;5015331;28;20052;-63
2023/03/05 07:46:27;;;;;;;6.20;2.03;;;;;;;;;;5017559;28;20069;-62
2023/03/05 07:48:54;;;;;;;6.87;1.80;;;;;;;;;;5010495;28;20054;-62
2023/03/05 07:51:21;;;;;;;8.27;1.80;;;;;;;;;;5083971;28;20630;-62
2023/03/05 07:53:48;;;;;;;6.67;1.90;;;;;;;;;;5022890;28;20144;-63
2023/03/05 07:56:20;;;;;;;7.40;2.00;;;;;;;;;;5026966;28;20077;-63
2023/03/05 07:58:46;;;;;;;6.13;2.13;;;;;;;;;;5008620;28;20049;-63
2023/03/05 08:01:15;;;;;;;6.37;1.70;;;;;;;;;;5023297;28;20069;-63
2023/03/05 08:03:42;;;;;;;20.10;4.20;;;;;;;;;;5027030;28;20152;-63
2023/03/05 08:06:09;;;;;;;12.93;2.37;;;;;;;;;;5016488;28;20091;-63
2023/03/05 08:08:35;;;;;;;12.70;2.20;;;;;;;;;;5016459;28;20090;-63
2023/03/05 08:11:05;;;;;;;6.83;1.97;;;;;;;;;;5012921;28;20138;-63
2023/03/05 08:13:31;;;;;;;7.83;1.97;;;;;;;;;;5015019;28;20514;-63
2023/03/05 08:15:57;;;;;;;4.93;1.77;;;;;;;;;;5015375;28;20038;-62
2023/03/05 08:18:23;;;;;;;6.50;1.63;;;;;;;;;;5025428;28;20057;-63
2023/03/05 08:20:49;;;;;;;11.50;2.60;;;;;;;;;;5026301;28;20091;-63
2023/03/05 08:23:18;;;;;;;6.00;2.57;;;;;;;;;;5082652;28;20050;-63
2023/03/05 08:25:44;;;;;;;9.07;2.73;;;;;;;;;;5006564;28;20419;-63
2023/03/05 08:28:10;;;;;;;4.83;1.40;;;;;;;;;;5005112;28;20514;-63
2023/03/05 08:30:36;;;;;;;8.10;1.97;;;;;;;;;;5006075;28;20068;-62
2023/03/05 08:33:02;;;;;;;6.37;1.40;;;;;;;;;;5008270;28;20088;-63
2023/03/05 08:35:28;;;;;;;9.47;1.97;;;;;;;;;;5006222;28;20512;-63
2023/03/05 08:37:54;;;;;;;7.37;1.37;;;;;;;;;;5007510;28;20053;-63
2023/03/05 08:40:20;;;;;;;8.50;1.27;;;;;;;;;;5083119;28;20038;-63
2023/03/05 08:42:46;;;;;;;8.83;1.60;;;;;;;;;;5015222;28;20046;-63
2023/03/05 08:45:12;;;;;;;8.77;1.40;;;;;;;;;;5016760;28;20049;-63
2023/03/05 08:47:39;;;;;;;4.20;1.33;;;;;;;;;;5016645;28;20049;-63
2023/03/05 08:50:05;;;;;;;10.73;1.60;;;;;;;;;;5016099;27;20501;-63
2023/03/05 08:52:31;;;;;;;8.90;1.23;;;;;;;;;;5021443;27;20042;-63
2023/03/05 08:54:57;;;;;;;7.23;1.10;;;;;;;;;;5093130;28;20049;-63
2023/03/05 08:57:23;;;;;;;7.03;1.17;;;;;;;;;;5025691;28;20046;-62
2023/03/05 08:59:49;;;;;;;7.37;1.30;;;;;;;;;;5023799;28;20094;-62
2023/03/05 09:02:15;;;;;;;5.07;1.17;;;;;;;;;;5015443;28;20061;-63
2023/03/05 09:04:41;;;;;;;7.40;0.97;;;;;;;;;;5013821;28;20057;-63
2023/03/05 09:07:07;;;;;;;7.43;1.20;;;;;;;;;;5014981;28;20042;-63
2023/03/05 09:09:33;;;;;;;11.63;1.70;;;;;;;;;;5014683;28;20045;-63
2023/03/05 09:11:59;;;;;;;6.57;2.43;;;;;;;;;;5013459;28;20057;-63
2023/03/05 09:14:27;;;;;;;10.03;1.67;;;;;;;;;;5013400;28;20528;-62
2023/03/05 09:16:53;;;;;;;10.50;2.13;;;;;;;;;;5013874;28;20469;-62
2023/03/05 09:19:19;;;;;;;7.10;1.73;;;;;;;;;;5012163;28;20033;-62
2023/03/05 09:21:46;;;;;;;9.00;2.00;;;;;;;;;;5011005;28;20992;-62
2023/03/05 09:24:12;;;;;;;14.10;2.23;;;;;;;;;;5019750;28;20651;-62
2023/03/05 09:26:39;;;;;;;6.43;1.63;;;;;;;;;;5012449;28;20308;-62
2023/03/05 09:29:07;;;;;;;8.13;1.50;;;;;;;;;;5013053;28;20054;-62
2023/03/05 09:31:33;;;;;;;7.27;1.10;;;;;;;;;;5012419;28;20537;-62
2023/03/05 09:33:59;;;;;;;8.37;1.03;;;;;;;;;;5012680;28;20120;-62
2023/03/05 09:36:27;;;;;;;7.57;2.07;;;;;;;;;;5015178;28;20049;-62
2023/03/05 09:38:53;;;;;;;7.10;1.60;;;;;;;;;;5010135;28;20520;-62
2023/03/05 09:41:19;;;;;;;7.07;1.47;;;;;;;;;;5015686;28;20132;-62
2023/03/05 09:43:53;;;;;;;6.23;0.87;;;;;;;;;;5007903;28;20054;-62
2023/03/05 09:46:19;;;;;;;5.73;1.20;;;;;;;;;;5024207;28;20052;-62
2023/03/05 09:48:50;;;;;;;9.43;1.50;;;;;;;;;;5015570;28;20057;-62
2023/03/05 09:51:19;;;;;;;8.07;1.80;;;;;;;;;;5005821;28;20045;-62
2023/03/05 09:54:03;;;;;;;5.10;1.13;;;;;;;;;;5021319;28;20062;-63
2023/03/05 09:56:31;;;;;;;8.55;1.48;;;;;;;;;;5025023;28;20050;-62
2023/03/05 09:59:03;;;;;;;6.80;1.33;;;;;;;;;;5025044;28;20505;-62
2023/03/05 10:01:34;;;;;;;13.00;2.00;;;;;;;;;;5024769;28;20050;-62
2023/03/05 10:04:09;;;;;;;9.23;2.33;;;;;;;;;;5024889;28;20045;-61
2023/03/05 10:06:36;;;;;;;7.93;1.27;;;;;;;;;;5009908;28;20054;-62
2023/03/05 10:09:11;;;;;;;11.93;2.60;;;;;;;;;;5004718;28;20711;-60
2023/03/05 10:11:44;;;;;;;9.87;1.43;;;;;;;;;;5005287;28;20099;-60
2023/03/05 10:14:15;;;;;;;6.97;1.13;;;;;;;;;;5072883;28;20558;-59
2023/03/05 10:17:00;;;;;;;12.40;1.90;;;;;;;;;;5004858;28;21549;-59
2023/03/05 10:19:32;;;;;;;11.93;2.80;;;;;;;;;;5006434;28;20046;-62
2023/03/05 10:22:13;;;;;;;10.00;1.50;;;;;;;;;;5005205;28;20058;-61
2023/03/05 10:24:45;;;;;;;10.03;1.47;;;;;;;;;;5004967;28;20099;-61
2023/03/05 10:27:18;;;;;;;9.13;1.30;;;;;;;;;;5004239;28;20053;-62
2023/03/05 10:29:53;;;;;;;6.93;1.30;;;;;;;;;;5004379;28;20713;-61
2023/03/05 10:32:24;;;;;;;6.57;1.10;;;;;;;;;;5006481;28;20049;-60
2023/03/05 10:34:59;;;;;;;8.90;1.63;;;;;;;;;;5007193;28;20034;-59
2023/03/05 10:37:36;;;;;;;8.83;1.60;;;;;;;;;;5006694;28;20046;-60
2023/03/05 10:40:08;;;;;;;6.07;1.13;;;;;;;;;;5007200;28;20096;-59
2023/03/05 10:42:42;;;;;;;6.13;1.07;;;;;;;;;;5006761;28;20436;-59
2023/03/05 10:45:19;;;;;;;8.90;1.30;;;;;;;;;;5026623;28;20477;-59
2023/03/05 10:47:49;;;;;;;7.97;1.23;;;;;;;;;;5028188;28;20088;-59
2023/03/05 10:50:26;;;;;;;6.10;1.07;;;;;;;;;;5027313;28;20049;-59
2023/03/05 10:53:04;;;;;;;8.33;1.17;;;;;;;;;;5028207;28;20473;-59
2023/03/05 10:55:30;;;;;;;5.07;1.10;;;;;;;;;;5012243;28;20075;-59
2023/03/05 10:57:56;;;;;;;6.70;1.60;;;;;;;;;;5011242;28;20512;-59
2023/03/05 11:00:31;;;;;;;5.37;1.10;;;;;;;;;;5028128;28;20513;-60
2023/03/05 11:02:57;;;;;;;6.93;1.20;;;;;;;;;;5026612;28;20370;-60
2023/03/05 11:05:38;;;;;;;5.13;0.93;;;;;;;;;;5027676;28;20049;-59
2023/03/05 11:08:33;;;;;;;8.90;2.10;;;;;;;;;;5027705;28;20050;-59
2023/03/05 11:11:10;;;;;;;6.17;1.33;;;;;;;;;;5024395;28;20050;-59
2023/03/05 11:13:38;;;;;;;5.47;1.30;;;;;;;;;;5007345;28;20092;-59
2023/03/05 11:16:05;;;;;;;2.53;0.53;;;;;;;;;;5007346;28;20050;-59
2023/03/05 11:18:35;;;;;;;5.10;1.40;;;;;;;;;;5007661;28;20053;-59
2023/03/05 11:21:06;;;;;;;7.70;1.60;;;;;;;;;;5007600;28;20073;-59
2023/03/05 11:23:32;;;;;;;6.30;1.10;;;;;;;;;;5007637;28;20046;-59
2023/03/05 11:26:00;;;;;;;3.00;0.77;;;;;;;;;;5006938;28;20073;-59
2023/03/05 11:28:28;;;;;;;2.83;0.83;;;;;;;;;;5007404;28;20497;-60
2023/03/05 11:30:59;;;;;;;7.20;1.20;;;;;;;;;;5009466;28;20065;-59
2023/03/05 11:33:25;;;;;;;5.47;1.00;;;;;;;;;;5006790;28;20622;-60
2023/03/05 11:35:53;;;;;;;4.17;0.80;;;;;;;;;;5006713;28;20042;-60
2023/03/05 11:38:23;;;;;;;2.03;0.60;;;;;;;;;;5007542;28;20412;-59
2023/03/05 11:40:49;;;;;;;2.57;0.50;;;;;;;;;;5007321;28;20398;-59
2023/03/05 11:43:17;;;;;;;3.47;0.60;;;;;;;;;;5007307;28;20046;-60
2023/03/05 11:45:44;;;;;;;4.57;0.70;;;;;;;;;;5006927;28;20417;-59
2023/03/05 11:48:28;;;;;;;4.00;0.70;;;;;;;;;;5007446;28;20297;-60
2023/03/05 11:51:01;;;;;;;3.83;0.70;;;;;;;;;;5007283;28;20560;-60
2023/03/05 11:53:34;;;;;;;5.05;0.98;;;;;;;;;;5007039;28;20132;-60
2023/03/05 11:56:00;;;;;;;;;;;;;;;;;;5007071;28;20124;-60
2023/03/05 11:58:43;;;;;;;2.03;0.80;;;;;;;;;;5006988;28;20012;-59
2023/03/05 12:01:35;;;;;;;3.47;0.90;;;;;;;;;;5007272;28;20424;-60
2023/03/05 12:04:03;;;;;;;6.53;1.07;;;;;;;;;;5009482;28;20085;-59
2023/03/05 12:06:34;;;;;;;7.10;0.80;;;;;;;;;;5006010;28;20058;-60
2023/03/05 12:09:02;;;;;;;7.20;0.90;;;;;;;;;;5006215;28;20052;-60
2023/03/05 12:11:32;;;;;;;8.27;1.27;;;;;;;;;;5006611;28;20054;-60
2023/03/05 12:14:03;;;;;;;5.80;1.50;;;;;;;;;;5006643;28;20058;-59
2023/03/05 12:16:38;;;;;;;4.93;0.93;;;;;;;;;;5008311;28;20733;-59
2023/03/05 12:19:14;;;;;;;1.90;0.50;;;;;;;;;;5005876;28;20091;-59
2023/03/05 12:21:41;;;;;;;7.67;1.10;;;;;;;;;;5006899;28;20563;-59
2023/03/05 12:24:25;;;;;;;3.13;0.57;;;;;;;;;;5006804;28;20046;-59
2023/03/05 12:26:58;;;;;;;4.37;0.80;;;;;;;;;;5007584;28;20050;-59
2023/03/05 12:29:39;;;;;;;2.95;0.80;;;;;;;;;;5005712;28;20046;-59
2023/03/05 12:32:30;;;;;;;5.53;0.70;;;;;;;;;;5006683;28;20045;-59
2023/03/05 12:35:04;;;;;;;7.57;0.97;;;;;;;;;;5008780;28;20033;-59
2023/03/05 12:37:30;;;;;;;4.77;0.80;;;;;;;;;;5005117;28;20054;-59
2023/03/05 12:40:18;;;;;;;3.87;0.77;;;;;;;;;;5006442;28;20517;-60
2023/03/05 12:42:45;;;;;;;3.73;0.80;;;;;;;;;;5006535;28;20042;-59
2023/03/05 12:45:11;;;;;;;6.07;0.83;;;;;;;;;;5007177;28;20050;-59
2023/03/05 12:47:44;;;;;;;3.33;0.90;;;;;;;;;;5014856;28;20052;-59
2023/03/05 12:50:28;;;;;;;4.60;0.65;;;;;;;;;;5019253;28;20064;-60
2023/03/05 12:52:54;;;;;;;6.00;1.00;;;;;;;;;;5011788;28;20053;-59
2023/03/05 12:55:26;;;;;;;7.50;0.90;;;;;;;;;;5013902;28;20084;-59
2023/03/05 12:57:56;;;;;;;3.70;0.80;;;;;;;;;;5022869;28;20584;-60
2023/03/05 13:00:27;;;;;;;2.47;0.60;;;;;;;;;;5088137;28;20045;-61
2023/03/05 13:02:57;;;;;;;3.80;1.20;;;;;;;;;;5016105;28;20056;-60
2023/03/05 13:05:31;;;;;;;4.87;1.00;;;;;;;;;;5015418;28;20053;-60
2023/03/05 13:08:18;;;;;;;4.53;0.77;;;;;;;;;;5004951;28;20042;-60
2023/03/05 13:10:50;;;;;;;5.40;1.30;;;;;;;;;;5020066;28;20045;-60
2023/03/05 13:13:16;;;;;;;3.10;0.80;;;;;;;;;;5021300;28;20052;-60
2023/03/05 13:15:45;;;;;;;4.80;1.10;;;;;;;;;;5021814;28;20042;-60
2023/03/05 13:18:18;;;;;;;4.30;1.27;;;;;;;;;;5021486;28;20566;-60
2023/03/05 13:20:44;;;;;;;2.15;0.70;;;;;;;;;;5021471;28;20097;-60
2023/03/05 13:23:26;;;;;;;2.23;0.50;;;;;;;;;;5020430;28;20049;-60
2023/03/05 13:25:59;;;;;;;3.57;0.73;;;;;;;;;;5011107;28;20477;-60
2023/03/05 13:28:25;;;;;;;3.25;0.88;;;;;;;;;;5076603;28;20038;-60
2023/03/05 13:30:52;;;;;;;2.73;0.70;;;;;;;;;;5010659;28;20396;-60
2023/03/05 13:33:22;;;;;;;5.37;0.77;;;;;;;;;;5012318;28;20046;-60
2023/03/05 13:35:48;;;;;;;4.27;0.90;;;;;;;;;;5010612;28;20045;-60
2023/03/05 13:38:34;;;;;;;3.90;0.80;;;;;;;;;;5010671;28;20046;-60
2023/03/05 13:41:05;;;;;;;7.70;0.73;;;;;;;;;;5084889;28;20110;-60
2023/03/05 13:43:32;;;;;;;5.73;1.20;;;;;;;;;;5014414;28;20095;-60
2023/03/05 13:45:58;;;;;;;3.63;0.93;;;;;;;;;;5009899;28;20181;-60
2023/03/05 13:48:25;;;;;;;2.70;0.70;;;;;;;;;;5013139;28;20121;-60
2023/03/05 13:50:58;;;;;;;5.50;0.77;;;;;;;;;;5009861;28;20041;-61
2023/03/05 13:53:26;;;;;;;3.13;0.73;;;;;;;;;;5016255;28;20412;-61
2023/03/05 13:55:54;;;;;;;4.27;1.10;;;;;;;;;;5016825;28;20046;-60
2023/03/05 13:58:39;;;;;;;7.00;1.07;;;;;;;;;;5012687;28;20077;-60
2023/03/05 14:01:12;;;;;;;3.87;1.00;;;;;;;;;;5014573;28;20050;-60
2023/03/05 14:03:38;;;;;;;3.72;0.80;;;;;;;;;;5010058;28;20099;-59
2023/03/05 14:06:11;;;;;;;3.80;0.90;;;;;;;;;;5016740;28;20098;-60
2023/03/05 14:08:37;;;;;;;6.88;0.80;;;;;;;;;;5013415;28;20060;-60
2023/03/05 14:11:13;;;;;;;5.87;1.03;;;;;;;;;;5018588;28;20089;-60
2023/03/05 14:13:40;;;;;;;5.27;1.83;;;;;;;;;;5016174;28;20049;-60
2023/03/05 14:16:10;;;;;;;7.27;1.40;;;;;;;;;;5016343;28;20042;-60
2023/03/05 14:18:37;;;;;;;4.00;0.87;;;;;;;;;;5015279;28;20042;-60
2023/03/05 14:21:07;;;;;;;4.00;0.97;;;;;;;;;;5018558;28;20046;-60
2023/03/05 14:23:38;;;;;;;4.60;1.00;;;;;;;;;;5016720;28;20067;-60
2023/03/05 14:26:31;;;;;;;3.63;0.60;;;;;;;;;;5019016;28;20072;-60
2023/03/05 14:29:01;;;;;;;3.33;0.50;;;;;;;;;;5019585;28;20077;-60
2023/03/05 14:31:27;;;;;;;2.83;0.80;;;;;;;;;;5016027;28;20062;-60
2023/03/05 14:33:54;;;;;;;2.37;0.60;;;;;;;;;;5013112;28;20042;-60
2023/03/05 14:36:24;;;;;;;4.70;0.97;;;;;;;;;;5017100;28;20045;-61
2023/03/05 14:38:51;;;;;;;3.03;0.60;;;;;;;;;;5015640;28;20132;-61
2023/03/05 14:41:18;;;;;;;5.50;1.63;;;;;;;;;;5017122;28;20068;-61
2023/03/05 14:43:44;;;;;;;3.60;1.00;;;;;;;;;;5017723;28;20111;-60
2023/03/05 14:46:10;;;;;;;6.17;1.33;;;;;;;;;;5015882;28;20049;-60